Time;durP1;ratioP1;P1;durP2;ratioP2;P2;SDS_P1;SDS_P2;PMS_P1;PMS_P2;Temp;Humidity;BMP_temperature;BMP_pressure;BME280_temperature;BME280_humidity;BME280_pressure;Samples;Min_cycle;Max_cycle;Signal;HPM_P1;HPM_P2
2021/04/02 00:00:59;;;;;;;;;;;;;;;24.55;38.42;99156.94;4484716;32;34093;-54
2021/04/02 00:03:27;;;;;;;;;;;;;;;24.55;38.26;99158.84;4484929;31;34210;-54
2021/04/02 00:05:55;;;;;;;;;;;;;;;24.55;38.38;99146.00;4484687;32;35086;-57
2021/04/02 00:08:21;;;;;;;;;;;;;;;24.55;38.21;99150.66;4484688;32;33555;-54
2021/04/02 00:10:58;;;;;;;;;;;;;;;24.55;38.08;99148.75;4484616;32;34102;-51
2021/04/02 00:13:26;;;;;;;;;;;;;;;24.54;38.56;99147.09;4484912;32;34029;-53
2021/04/02 00:15:53;;;;;;;;;;;;;;;24.53;38.54;99137.28;4484665;32;33943;-53
2021/04/02 00:18:20;;;;;;;;;;;;;;;24.53;38.61;99148.19;4494159;31;33553;-54
2021/04/02 00:20:47;;;;;;;;;;;;;;;24.54;38.57;99141.66;4499084;31;34169;-53
2021/04/02 00:23:14;;;;;;;;;;;;;;;24.53;38.57;99152.78;4500339;31;34068;-54
2021/04/02 00:25:41;;;;;;;;;;;;;;;24.53;38.56;99141.88;4499231;31;34881;-53
2021/04/02 00:28:08;;;;;;;;;;;;;;;24.52;38.55;99140.22;4500381;31;33528;-49
2021/04/02 00:30:50;;;;;;;;;;;;;;;24.52;38.57;99134.78;4500317;31;34186;-52
2021/04/02 00:33:18;;;;;;;;;;;;;;;24.52;38.58;99129.31;4500019;31;34951;-53
2021/04/02 00:35:45;;;;;;;;;;;;;;;24.51;38.59;99133.94;4472422;31;34355;-55
2021/04/02 00:38:12;;;;;;;;;;;;;;;24.50;38.57;99134.22;4484643;32;33955;-56
2021/04/02 00:40:51;;;;;;;;;;;;;;;24.50;38.59;99136.94;4484499;32;33761;-54
2021/04/02 00:43:19;;;;;;;;;;;;;;;24.50;38.57;99131.47;4484592;32;34120;-56
2021/04/02 00:45:46;;;;;;;;;;;;;;;24.50;38.37;99140.50;4484365;32;35236;-51
2021/04/02 00:48:12;;;;;;;;;;;;;;;24.50;38.32;99136.94;4484499;32;34239;-55
2021/04/02 00:50:46;;;;;;;;;;;;;;;24.49;38.25;99136.12;4484348;32;34144;-58
2021/04/02 00:53:13;;;;;;;;;;;;;;;24.50;38.40;99136.94;4491841;31;34942;-55
2021/04/02 00:55:40;;;;;;;;;;;;;;;24.49;38.55;99144.31;4500180;31;34296;-49
2021/04/02 00:58:07;;;;;;;;;;;;;;;24.48;38.57;99139.94;4500299;31;34197;-53
2021/04/02 01:00:34;;;;;;;;;;;;;;;24.48;38.55;99134.47;4499963;31;34824;-52
2021/04/02 01:03:02;;;;;;;;;;;;;;;24.48;38.53;99144.53;4499893;31;34290;-52
2021/04/02 01:05:31;;;;;;;;;;;;;;;24.47;38.54;99148.34;4498842;31;34994;-56
2021/04/02 01:08:03;;;;;;;;;;;;;;;24.47;38.52;99151.88;4500334;31;33254;-52
2021/04/02 01:10:30;;;;;;;;;;;;;;;24.46;38.56;99152.97;4500344;31;34035;-54
2021/04/02 01:13:02;;;;;;;;;;;;;;;24.46;38.31;99150.25;4497760;31;34941;-52
2021/04/02 01:15:31;;;;;;;;;;;;;;;24.45;38.40;99137.69;4484181;31;34742;-55
2021/04/02 01:17:59;;;;;;;;;;;;;;;24.45;38.65;99148.59;4484233;32;33424;-54
2021/04/02 01:20:26;;;;;;;;;;;;;;;24.46;38.73;99141.22;4484306;32;34137;-54
2021/04/02 01:22:53;;;;;;;;;;;;;;;24.45;38.70;99140.41;4484367;32;34945;-53
2021/04/02 01:25:40;;;;;;;;;;;;;;;24.45;38.65;99137.69;4483063;32;34998;-54
2021/04/02 01:28:13;;;;;;;;;;;;;;;24.45;38.74;99136.88;4483183;32;33433;-56
2021/04/02 01:30:40;;;;;;;;;;;;;;;24.44;38.73;99127.88;4483124;32;33751;-51
2021/04/02 01:33:08;;;;;;;;;;;;;;;24.43;38.71;99123.47;4484434;31;33820;-55
2021/04/02 01:35:36;;;;;;;;;;;;;;;24.44;38.69;99127.88;4500015;31;35123;-52
2021/04/02 01:38:11;;;;;;;;;;;;;;;24.43;38.65;99137.09;4500088;31;33042;-56
2021/04/02 01:40:40;;;;;;;;;;;;;;;24.43;38.56;99129.75;4498872;31;35107;-51
2021/04/02 01:43:08;;;;;;;;;;;;;;;24.42;38.58;99128.09;4499992;31;34048;-53
2021/04/02 01:45:36;;;;;;;;;;;;;;;24.43;38.38;99126.19;4499476;31;35002;-55
2021/04/02 01:48:05;;;;;;;;;;;;;;;24.42;38.76;99136.28;4500034;31;33659;-55
2021/04/02 01:50:32;;;;;;;;;;;;;;;24.43;38.72;99137.09;4498510;31;34149;-54
2021/04/02 01:52:59;;;;;;;;;;;;;;;24.42;38.64;99143.62;4499408;31;34164;-54
2021/04/02 01:55:27;;;;;;;;;;;;;;;24.43;38.84;99142.53;4474789;31;34400;-56
2021/04/02 01:57:55;;;;;;;;;;;;;;;24.42;38.81;99143.62;4467111;32;33023;-52
2021/04/02 02:00:24;;;;;;;;;;;;;;;24.42;38.78;99152.63;4467018;32;34074;-57
2021/04/02 02:02:52;;;;;;;;;;;;;;;24.41;38.71;99145.53;4468049;32;34121;-50
2021/04/02 02:05:19;;;;;;;;;;;;;;;24.41;38.61;99153.72;4468263;32;34256;-54
2021/04/02 02:07:46;;;;;;;;;;;;;;;24.41;38.46;99155.63;4469656;31;34300;-49
2021/04/02 02:10:17;;;;;;;;;;;;;;;24.42;38.87;99162.72;4483769;32;34200;-54
2021/04/02 02:12:45;;;;;;;;;;;;;;;24.40;38.51;99157.53;4483835;32;34093;-57
2021/04/02 02:15:14;;;;;;;;;;;;;;;24.40;38.48;99154.78;4483555;32;34019;-52
2021/04/02 02:17:54;;;;;;;;;;;;;;;24.40;38.58;99164.88;4492296;31;33473;-54
2021/04/02 02:20:22;;;;;;;;;;;;;;;24.40;38.45;99156.69;4501141;31;33612;-57
2021/04/02 02:22:52;;;;;;;;;;;;;;;24.40;38.45;99164.88;4501199;31;35010;-53
2021/04/02 02:25:20;;;;;;;;;;;;;;;24.40;38.43;99159.44;4501257;31;34381;-51
2021/04/02 02:27:47;;;;;;;;;;;;;;;24.39;38.45;99157.78;4499913;31;33425;-51
2021/04/02 02:30:16;;;;;;;;;;;;;;;24.39;38.40;99157.78;4499792;31;34100;-48
2021/04/02 02:32:44;;;;;;;;;;;;;;;24.39;38.21;99163.22;4501459;31;33850;-56
2021/04/02 02:35:11;;;;;;;;;;;;;;;24.38;38.12;99159.66;4486647;31;33901;-57
2021/04/02 02:37:40;;;;;;;;;;;;;;;24.38;38.39;99167.84;4469838;32;33469;-54
2021/04/02 02:40:18;;;;;;;;;;;;;;;24.37;38.25;99155.28;4469623;32;34884;-51
2021/04/02 02:42:45;;;;;;;;;;;;;;;24.37;38.26;99138.09;4469658;32;34059;-53
2021/04/02 02:45:12;;;;;;;;;;;;;;;24.38;38.27;99134.28;4476277;32;34461;-51
2021/04/02 02:47:40;;;;;;;;;;;;;;;24.37;38.38;99155.28;4485826;31;33130;-55
2021/04/02 02:50:14;;;;;;;;;;;;;;;24.37;38.42;99141.66;4485577;32;35077;-53
2021/04/02 02:52:41;;;;;;;;;;;;;;;24.37;38.31;99138.09;4485280;32;34182;-53
2021/04/02 02:55:09;;;;;;;;;;;;;;;24.37;38.69;99151.72;4485043;32;34688;-53
2021/04/02 02:57:37;;;;;;;;;;;;;;;24.35;38.52;99138.31;4485205;32;33537;-54
2021/04/02 03:00:13;;;;;;;;;;;;;;;24.36;38.67;99152.78;4485631;32;34081;-54
2021/04/02 03:02:41;;;;;;;;;;;;;;;24.36;38.69;99156.38;4483794;31;34132;-48
2021/04/02 03:05:09;;;;;;;;;;;;;;;24.35;38.67;99162.87;4477926;32;34379;-52
2021/04/02 03:07:35;;;;;;;;;;;;;;;24.35;38.72;99165.59;4479688;32;33559;-46
2021/04/02 03:10:06;;;;;;;;;;;;;;;24.35;38.73;99172.94;4483749;32;34856;-50
2021/04/02 03:12:33;;;;;;;;;;;;;;;24.34;38.72;99177.56;4485402;32;34242;-48
2021/04/02 03:15:00;;;;;;;;;;;;;;;24.35;38.67;99183.84;4468692;32;34255;-47
2021/04/02 03:17:28;;;;;;;;;;;;;;;24.34;38.84;99182.19;4468178;32;33564;-46
2021/04/02 03:19:55;;;;;;;;;;;;;;;24.34;38.69;99184.91;4473847;32;33989;-50
2021/04/02 03:22:22;;;;;;;;;;;;;;;24.34;38.81;99190.34;4485127;32;34143;-49
2021/04/02 03:24:50;;;;;;;;;;;;;;;24.34;38.74;99188.47;4484026;32;34940;-51
2021/04/02 03:27:18;;;;;;;;;;;;;;;24.33;38.66;99183.25;4483613;32;34229;-48
2021/04/02 03:29:46;;;;;;;;;;;;;;;24.32;38.50;99182.44;4482767;32;33606;-47
2021/04/02 03:32:13;;;;;;;;;;;;;;;24.33;38.57;99189.53;4485189;32;34987;-47
2021/04/02 03:34:40;;;;;;;;;;;;;;;24.33;38.35;99189.53;4484038;32;34335;-49
2021/04/02 03:37:08;;;;;;;;;;;;;;;24.33;38.72;99177.81;4483635;32;33396;-47
2021/04/02 03:39:37;;;;;;;;;;;;;;;24.33;38.69;99185.97;4485175;32;34170;-46
2021/04/02 03:42:04;;;;;;;;;;;;;;;24.32;38.29;99184.34;4483812;32;34913;-47
2021/04/02 03:44:32;;;;;;;;;;;;;;;24.31;38.60;99194.41;4483498;32;34001;-47
2021/04/02 03:47:01;;;;;;;;;;;;;;;24.32;38.64;99196.06;4483641;32;33713;-47
2021/04/02 03:49:32;;;;;;;;;;;;;;;24.32;38.76;99189.78;4484997;32;34810;-47
2021/04/02 03:52:20;;;;;;;;;;;;;;;24.32;38.79;99197.97;4483705;32;35048;-48
2021/04/02 03:54:48;;;;;;;;;;;;;;;24.30;38.60;99198.22;4484888;32;34450;-46
2021/04/02 03:57:16;;;;;;;;;;;;;;;24.31;38.55;99191.69;4490766;31;33063;-45
2021/04/02 03:59:43;;;;;;;;;;;;;;;24.30;38.51;99198.22;4486258;31;34055;-49
2021/04/02 04:02:10;;;;;;;;;;;;;;;24.30;38.79;99192.78;4486357;31;34062;-46
2021/04/02 04:04:40;;;;;;;;;;;;;;;24.31;38.74;99193.59;4486474;31;34266;-52
2021/04/02 04:07:07;;;;;;;;;;;;;;;24.30;38.77;99194.69;4500596;31;34153;-49
2021/04/02 04:09:35;;;;;;;;;;;;;;;24.29;38.75;99193.81;4473571;31;34135;-49
2021/04/02 04:12:02;;;;;;;;;;;;;;;24.30;38.80;99200.13;4486484;31;33744;-47
2021/04/02 04:14:29;;;;;;;;;;;;;;;24.29;38.53;99193.00;4486473;31;35025;-49
2021/04/02 04:16:57;;;;;;;;;;;;;;;24.29;38.77;99190.28;4500786;31;33606;-47
2021/04/02 04:19:25;;;;;;;;;;;;;;;24.28;38.92;99203.06;4500278;31;33810;-50
2021/04/02 04:21:52;;;;;;;;;;;;;;;24.29;38.61;99201.19;4486444;31;34150;-52
2021/04/02 04:24:20;;;;;;;;;;;;;;;24.29;38.30;99196.53;4499059;31;34292;-46
2021/04/02 04:26:47;;;;;;;;;;;;;;;24.29;38.32;99193.81;4479980;32;33287;-47
2021/04/02 04:29:16;;;;;;;;;;;;;;;24.29;38.83;99198.44;4483243;32;34119;-51
2021/04/02 04:31:43;;;;;;;;;;;;;;;24.28;38.88;99197.62;4483001;32;34034;-49
2021/04/02 04:34:10;;;;;;;;;;;;;;;24.28;38.68;99196.81;4483236;32;34304;-51
2021/04/02 04:36:37;;;;;;;;;;;;;;;24.28;38.83;99199.53;4484754;32;34211;-46
2021/04/02 04:39:04;;;;;;;;;;;;;;;24.28;38.88;99204.97;4484563;32;34041;-51
2021/04/02 04:41:31;;;;;;;;;;;;;;;24.27;38.82;99197.88;4483114;32;35053;-49
2021/04/02 04:43:58;;;;;;;;;;;;;;;24.26;38.87;99198.97;4484287;32;34316;-46
2021/04/02 04:46:25;;;;;;;;;;;;;;;24.28;38.60;99196.81;4482937;32;33548;-51
2021/04/02 04:48:52;;;;;;;;;;;;;;;24.27;38.75;99200.63;4484337;32;34014;-47
2021/04/02 04:51:20;;;;;;;;;;;;;;;24.26;38.92;99202.50;4484434;32;35014;-47
2021/04/02 04:53:47;;;;;;;;;;;;;;;24.26;39.02;99207.97;4479421;32;33975;-52
2021/04/02 04:56:14;;;;;;;;;;;;;;;24.27;38.88;99217.78;4484332;32;33468;-55
2021/04/02 04:58:41;;;;;;;;;;;;;;;24.28;38.81;99213.16;4484380;32;34100;-53
2021/04/02 05:01:08;;;;;;;;;;;;;;;24.28;38.85;99224.06;4483050;32;34072;-56
2021/04/02 05:03:35;;;;;;;;;;;;;;;24.27;38.79;99219.69;4483072;32;34133;-49
2021/04/02 05:06:02;;;;;;;;;;;;;;;24.26;38.44;99205.25;4484404;32;33056;-56
2021/04/02 05:08:32;;;;;;;;;;;;;;;24.26;38.37;99218.06;4483039;32;34987;-51
2021/04/02 05:10:59;;;;;;;;;;;;;;;24.27;38.58;99214.25;4482944;32;34854;-56
2021/04/02 05:13:26;;;;;;;;;;;;;;;24.25;38.57;99219.09;4478636;32;35077;-49
2021/04/02 05:15:53;;;;;;;;;;;;;;;24.27;38.35;99216.97;4482392;32;33523;-47
2021/04/02 05:18:20;;;;;;;;;;;;;;;24.26;38.21;99223.50;4482867;32;33628;-47
2021/04/02 05:20:47;;;;;;;;;;;;;;;24.26;38.23;99231.69;4482906;32;35017;-47
2021/04/02 05:23:14;;;;;;;;;;;;;;;24.25;38.25;99227.28;4484146;32;34432;-48
2021/04/02 05:25:41;;;;;;;;;;;;;;;24.24;38.24;99237.34;4484171;32;33350;-48
2021/04/02 05:28:08;;;;;;;;;;;;;;;24.24;38.23;99225.63;4483998;32;34143;-48
2021/04/02 05:30:35;;;;;;;;;;;;;;;24.23;38.27;99227.53;4484296;32;34169;-49
2021/04/02 05:33:02;;;;;;;;;;;;;;;24.23;38.29;99232.16;4483888;32;34392;-46
2021/04/02 05:35:29;;;;;;;;;;;;;;;24.22;38.27;99236.78;4483961;32;34570;-48
2021/04/02 05:37:56;;;;;;;;;;;;;;;24.20;38.24;99233.47;4484183;32;34107;-46
2021/04/02 05:40:23;;;;;;;;;;;;;;;24.21;38.21;99242.50;4483819;32;34944;-49
2021/04/02 05:42:50;;;;;;;;;;;;;;;24.21;38.21;99245.22;4483328;32;34459;-49
2021/04/02 05:45:17;;;;;;;;;;;;;;;24.19;38.21;99249.00;4483746;32;33251;-50
2021/04/02 05:47:44;;;;;;;;;;;;;;;24.19;38.16;99256.34;4482301;32;34114;-46
2021/04/02 05:50:24;;;;;;;;;;;;;;;24.19;38.17;99256.34;4483919;32;34135;-46
2021/04/02 05:52:51;;;;;;;;;;;;;;;24.17;38.14;99267.50;4481493;32;35359;-47
2021/04/02 05:55:18;;;;;;;;;;;;;;;24.17;38.13;99248.44;4482386;32;34909;-50
2021/04/02 05:57:45;;;;;;;;;;;;;;;24.17;38.13;99256.59;4482538;32;34041;-48
2021/04/02 06:00:13;;;;;;;;;;;;;;;24.17;38.11;99250.31;4483569;32;34123;-48
2021/04/02 06:02:40;;;;;;;;;;;;;;;24.16;38.10;99252.22;4483312;32;34298;-46
2021/04/02 06:05:08;;;;;;;;;;;;;;;24.16;38.10;99252.22;4483559;32;34306;-47
2021/04/02 06:07:38;;;;;;;;;;;;;;;24.15;38.09;99250.59;4483348;32;34256;-50
2021/04/02 06:10:05;;;;;;;;;;;;;;;24.14;38.09;99240.72;4483414;32;35036;-48
2021/04/02 06:12:35;;;;;;;;;;;;;;;24.15;38.09;99244.28;4483736;32;34306;-49
2021/04/02 06:15:04;;;;;;;;;;;;;;;24.14;38.09;99248.91;4483133;32;34013;-49
2021/04/02 06:17:50;;;;;;;;;;;;;;;24.15;37.97;99239.69;4482705;32;33985;-53
2021/04/02 06:20:17;;;;;;;;;;;;;;;24.14;36.35;99245.34;4482884;32;34901;-63
2021/04/02 06:22:44;;;;;;;;;;;;;;;24.08;37.08;99247.16;4483225;32;34377;-60
2021/04/02 06:25:11;;;;;;;;;;;;;;;24.11;37.08;99262.22;4482167;32;34995;-60
2021/04/02 06:27:38;;;;;;;;;;;;;;;24.12;36.58;99267.41;4481807;32;34711;-64
2021/04/02 06:30:05;;;;;;;;;;;;;;;24.16;36.16;99274.03;4483585;32;34057;-60
2021/04/02 06:32:33;;;;;;;;;;;;;;;24.17;35.81;99270.22;4483221;32;33921;-61
2021/04/02 06:35:09;;;;;;;;;;;;;;;24.19;35.61;99272.72;4482971;32;33485;-48
2021/04/02 06:37:36;;;;;;;;;;;;;;;24.18;35.66;99263.69;4482990;32;34252;-50
2021/04/02 06:40:09;;;;;;;;;;;;;;;24.23;35.65;99262.16;4482967;32;33770;-50
2021/04/02 06:42:35;;;;;;;;;;;;;;;24.25;35.69;99265.44;4481771;32;34467;-52
2021/04/02 06:45:06;;;;;;;;;;;;;;;24.26;35.69;99253.50;4483185;32;33482;-51
2021/04/02 06:47:37;;;;;;;;;;;;;;;24.27;35.70;99261.41;4482740;32;33585;-52
2021/04/02 06:50:22;;;;;;;;;;;;;;;24.28;35.74;99259.50;4483058;32;34122;-53
2021/04/02 06:52:51;;;;;;;;;;;;;;;24.29;35.85;99266.59;4482745;32;35114;-54
2021/04/02 06:55:18;;;;;;;;;;;;;;;24.28;35.84;99270.41;4482854;32;33136;-50
2021/04/02 06:57:46;;;;;;;;;;;;;;;24.28;35.91;99276.69;4482635;32;34153;-52
2021/04/02 07:00:22;;;;;;;;;;;;;;;24.28;36.01;99267.69;4482353;32;34183;-54
2021/04/02 07:02:49;;;;;;;;;;;;;;;24.28;36.19;99267.69;4482094;32;35100;-50
2021/04/02 07:05:17;;;;;;;;;;;;;;;24.26;36.20;99267.94;4485157;32;33580;-50
2021/04/02 07:07:45;;;;;;;;;;;;;;;24.29;36.24;99266.59;4484927;32;34002;-55
2021/04/02 07:10:13;;;;;;;;;;;;;;;24.29;36.31;99274.78;4485262;32;34657;-52
2021/04/02 07:12:43;;;;;;;;;;;;;;;24.29;36.40;99274.78;4485147;32;34332;-48
2021/04/02 07:15:10;;;;;;;;;;;;;;;24.28;36.52;99276.69;4484795;32;33382;-51
2021/04/02 07:17:37;;;;;;;;;;;;;;;24.29;36.62;99277.50;4484994;32;34092;-50
2021/04/02 07:20:04;;;;;;;;;;;;;;;24.31;36.69;99278.13;4482880;32;33965;-49
2021/04/02 07:22:32;;;;;;;;;;;;;;;24.33;36.69;99286.88;4483720;32;34762;-52
2021/04/02 07:24:59;;;;;;;;;;;;;;;24.33;36.75;99284.13;4483735;32;34291;-50
2021/04/02 07:27:27;;;;;;;;;;;;;;;24.32;36.80;99282.50;4484897;32;34196;-52
2021/04/02 07:29:54;;;;;;;;;;;;;;;24.32;36.84;99283.31;4484998;32;33972;-55
2021/04/02 07:32:21;;;;;;;;;;;;;;;24.33;36.86;99284.13;4485700;31;35264;-47
2021/04/02 07:34:49;;;;;;;;;;;;;;;24.31;36.88;99300.75;4499418;31;32223;-52
2021/04/02 07:37:17;;;;;;;;;;;;;;;24.31;36.81;99303.47;4498804;31;33964;-58
2021/04/02 07:39:47;;;;;;;;;;;;;;;24.31;36.82;99308.94;4500230;31;34255;-55
2021/04/02 07:42:14;;;;;;;;;;;;;;;24.31;36.83;99308.09;4500173;31;34466;-56
2021/04/02 07:44:44;;;;;;;;;;;;;;;24.30;36.88;99307.28;4500763;31;33244;-52
2021/04/02 07:47:12;;;;;;;;;;;;;;;24.30;36.95;99310.00;4478876;31;34420;-50
2021/04/02 07:49:39;;;;;;;;;;;;;;;24.32;37.02;99312.47;4480221;32;34254;-54
2021/04/02 07:52:06;;;;;;;;;;;;;;;24.31;37.10;99314.37;4484494;32;33989;-53
2021/04/02 07:54:34;;;;;;;;;;;;;;;24.32;37.13;99310.56;4484413;32;33564;-48
2021/04/02 07:57:13;;;;;;;;;;;;;;;24.32;37.10;99309.75;4486794;31;34896;-49
2021/04/02 07:59:40;;;;;;;;;;;;;;;24.32;37.09;99307.03;4500399;31;34074;-48
2021/04/02 08:02:26;;;;;;;;;;;;;;;24.32;37.13;99315.22;4495971;31;35291;-49
2021/04/02 08:04:53;;;;;;;;;;;;;;;24.33;37.16;99325.03;4484697;32;33088;-48
2021/04/02 08:07:33;;;;;;;;;;;;;;;24.30;37.15;99318.19;4484505;31;34689;-52
2021/04/02 08:10:01;;;;;;;;;;;;;;;24.31;37.15;99322.56;4493188;31;34082;-50
2021/04/02 08:12:34;;;;;;;;;;;;;;;24.31;37.21;99324.47;4500159;31;34263;-50
2021/04/02 08:15:11;;;;;;;;;;;;;;;24.32;37.25;99334.28;4499592;31;33394;-56
2021/04/02 08:17:38;;;;;;;;;;;;;;;24.31;37.31;99335.38;4490842;31;33256;-49
2021/04/02 08:20:06;;;;;;;;;;;;;;;24.32;37.37;99350.66;4487229;31;34906;-49
2021/04/02 08:22:33;;;;;;;;;;;;;;;24.31;37.44;99341.66;4484521;32;34876;-53
2021/04/02 08:25:01;;;;;;;;;;;;;;;24.35;37.40;99344.72;4484453;32;34149;-51
2021/04/02 08:27:29;;;;;;;;;;;;;;;24.33;37.48;99338.66;4484386;32;33342;-49
2021/04/02 08:30:03;;;;;;;;;;;;;;;24.35;37.43;99333.81;4489448;31;35131;-56
2021/04/02 08:32:37;;;;;;;;;;;;;;;24.35;37.50;99331.09;4498787;31;34445;-50
2021/04/02 08:35:04;;;;;;;;;;;;;;;24.35;37.54;99336.53;4500125;31;33626;-49
2021/04/02 08:37:31;;;;;;;;;;;;;;;24.34;37.57;99341.16;4500226;31;34698;-52
2021/04/02 08:40:02;;;;;;;;;;;;;;;24.33;37.58;99334.03;4500000;31;34147;-54
2021/04/02 08:42:29;;;;;;;;;;;;;;;24.37;37.46;99334.41;4491237;31;35053;-52
2021/04/02 08:44:56;;;;;;;;;;;;;;;24.37;37.49;99329.78;4500291;31;33544;-48
2021/04/02 08:47:23;;;;;;;;;;;;;;;24.37;37.49;99329.78;4486760;31;34024;-49
2021/04/02 08:49:54;;;;;;;;;;;;;;;24.38;37.53;99331.44;4484237;32;35177;-53
2021/04/02 08:52:21;;;;;;;;;;;;;;;24.36;37.69;99325.41;4484327;31;35084;-50
2021/04/02 08:54:52;;;;;;;;;;;;;;;24.36;37.75;99319.09;4484316;32;33552;-47
2021/04/02 08:57:18;;;;;;;;;;;;;;;24.37;37.76;99328.97;4484365;32;33691;-48
2021/04/02 08:59:46;;;;;;;;;;;;;;;24.35;37.78;99337.37;4482958;32;34959;-50
2021/04/02 09:02:12;;;;;;;;;;;;;;;24.36;37.78;99335.47;4487376;31;34292;-54
2021/04/02 09:04:39;;;;;;;;;;;;;;;24.36;37.81;99330.00;4500048;31;34196;-55
2021/04/02 09:07:06;;;;;;;;;;;;;;;24.36;37.82;99325.41;4498609;31;33641;-52
2021/04/02 09:09:33;;;;;;;;;;;;;;;24.36;37.87;99333.59;4499880;31;34076;-55
2021/04/02 09:12:07;;;;;;;;;;;;;;;24.36;37.85;99332.75;4497331;31;34188;-52
2021/04/02 09:14:34;;;;;;;;;;;;;;;24.36;37.84;99338.19;4483762;31;34225;-52
2021/04/02 09:17:01;;;;;;;;;;;;;;;24.37;37.84;99328.97;4483994;32;34049;-54
2021/04/02 09:19:27;;;;;;;;;;;;;;;24.38;37.76;99344.25;4484391;32;35019;-52
2021/04/02 09:21:55;;;;;;;;;;;;;;;24.39;37.74;99335.03;4485029;31;34360;-47
2021/04/02 09:24:22;;;;;;;;;;;;;;;24.40;37.75;99333.94;4500026;31;33570;-54
2021/04/02 09:26:48;;;;;;;;;;;;;;;24.42;37.72;99329.06;4498517;31;34860;-57
2021/04/02 09:29:17;;;;;;;;;;;;;;;24.40;37.74;99325.75;4499660;31;33701;-56
2021/04/02 09:31:44;;;;;;;;;;;;;;;24.39;37.47;99337.75;4499279;31;34463;-56
2021/04/02 09:34:20;;;;;;;;;;;;;;;24.39;36.57;99335.03;4483492;32;33580;-49
2021/04/02 09:36:47;;;;;;;;;;;;;;;24.40;36.50;99342.12;4483498;32;34062;-51
2021/04/02 09:39:14;;;;;;;;;;;;;;;24.39;36.03;99348.66;4483846;32;34254;-51
2021/04/02 09:42:07;;;;;;;;;;;;;;;24.39;35.83;99335.84;4483677;31;34705;-50
2021/04/02 09:44:39;;;;;;;;;;;;;;;24.40;35.88;99336.66;4479869;31;33421;-51
2021/04/02 09:47:06;;;;;;;;;;;;;;;24.39;35.96;99335.03;4494584;31;34051;-50
2021/04/02 09:49:34;;;;;;;;;;;;;;;24.38;36.08;99334.16;4499498;31;34986;-55
2021/04/02 09:52:02;;;;;;;;;;;;;;;24.39;36.20;99335.84;4498951;31;34101;-51
2021/04/02 09:54:30;;;;;;;;;;;;;;;24.39;36.24;99335.03;4483935;32;34012;-48
2021/04/02 09:56:58;;;;;;;;;;;;;;;24.40;36.37;99331.22;4483813;32;34384;-50
2021/04/02 09:59:25;;;;;;;;;;;;;;;24.39;36.44;99329.56;4483682;32;34192;-46
2021/04/02 10:01:52;;;;;;;;;;;;;;;24.40;36.52;99328.47;4484329;31;34228;-49
2021/04/02 10:04:19;;;;;;;;;;;;;;;24.40;36.62;99331.22;4493967;31;34204;-56
2021/04/02 10:06:46;;;;;;;;;;;;;;;24.39;36.64;99329.56;4499477;31;34013;-48
2021/04/02 10:09:13;;;;;;;;;;;;;;;24.40;36.73;99328.47;4499049;31;34107;-54
2021/04/02 10:11:50;;;;;;;;;;;;;;;24.40;36.73;99328.47;4499040;31;34394;-56
2021/04/02 10:14:17;;;;;;;;;;;;;;;24.39;36.79;99315.94;4489200;31;33588;-48
2021/04/02 10:16:45;;;;;;;;;;;;;;;24.39;36.83;99327.66;4483348;31;34129;-50
2021/04/02 10:19:15;;;;;;;;;;;;;;;24.39;36.98;99326.84;4483326;31;34994;-50
2021/04/02 10:21:42;;;;;;;;;;;;;;;24.43;36.92;99319.78;4471276;32;35538;-52
2021/04/02 10:24:09;;;;;;;;;;;;;;;24.43;36.95;99333.44;4468860;32;34547;-48
2021/04/02 10:26:36;;;;;;;;;;;;;;;24.43;36.98;99323.37;4482893;32;33738;-49
2021/04/02 10:29:03;;;;;;;;;;;;;;;24.45;36.95;99327.75;4483070;32;35421;-49
2021/04/02 10:31:30;;;;;;;;;;;;;;;24.43;36.99;99322.53;4483109;32;35001;-52
2021/04/02 10:33:57;;;;;;;;;;;;;;;24.45;37.03;99311.38;4483055;32;34224;-48
2021/04/02 10:36:24;;;;;;;;;;;;;;;24.43;37.06;99314.34;4482887;32;34814;-50
2021/04/02 10:38:51;;;;;;;;;;;;;;;24.44;37.07;99310.56;4484421;32;34117;-53
2021/04/02 10:41:18;;;;;;;;;;;;;;;24.44;37.13;99305.13;4484790;32;34500;-57
2021/04/02 10:43:45;;;;;;;;;;;;;;;24.42;37.17;99305.34;4485438;32;33565;-54
2021/04/02 10:46:12;;;;;;;;;;;;;;;24.42;37.21;99299.06;4482288;32;34153;-58
2021/04/02 10:48:39;;;;;;;;;;;;;;;24.40;37.29;99303.94;4482456;32;34059;-58
2021/04/02 10:51:06;;;;;;;;;;;;;;;24.40;37.32;99303.94;4484530;32;33949;-54
2021/04/02 10:53:33;;;;;;;;;;;;;;;24.39;37.32;99313.22;4484691;32;33478;-55
2021/04/02 10:56:03;;;;;;;;;;;;;;;24.38;37.25;99306.06;4480900;32;34713;-56
2021/04/02 10:58:32;;;;;;;;;;;;;;;24.36;37.24;99303.59;4469871;32;34269;-57
2021/04/02 11:00:59;;;;;;;;;;;;;;;24.37;37.21;99307.16;4475101;32;33877;-53
2021/04/02 11:03:26;;;;;;;;;;;;;;;24.36;37.17;99297.28;4470039;32;33122;-57
2021/04/02 11:05:53;;;;;;;;;;;;;;;24.36;37.15;99294.56;4471074;32;34154;-58
2021/04/02 11:08:20;;;;;;;;;;;;;;;24.35;37.14;99304.66;4472945;32;34059;-57
2021/04/02 11:10:47;;;;;;;;;;;;;;;24.35;37.13;99291.00;4473310;32;35113;-60
2021/04/02 11:13:14;;;;;;;;;;;;;;;24.34;37.22;99285.78;4485564;32;33687;-59
2021/04/02 11:15:41;;;;;;;;;;;;;;;24.34;37.18;99285.78;4480764;32;34460;-57
2021/04/02 11:18:07;;;;;;;;;;;;;;;24.35;37.09;99287.47;4478675;32;35074;-51
2021/04/02 11:20:34;;;;;;;;;;;;;;;24.36;36.99;99278.19;4471925;32;34692;-57
2021/04/02 11:23:01;;;;;;;;;;;;;;;24.34;37.01;99273.00;4473192;32;34232;-53
2021/04/02 11:25:28;;;;;;;;;;;;;;;24.33;37.03;99265.88;4483656;32;34041;-53
2021/04/02 11:27:55;;;;;;;;;;;;;;;24.33;37.12;99254.97;4482905;32;34960;-51
2021/04/02 11:30:22;;;;;;;;;;;;;;;24.34;37.18;99262.09;4483987;32;35693;-48
2021/04/02 11:32:49;;;;;;;;;;;;;;;24.34;37.17;99262.09;4480948;32;34220;-49
2021/04/02 11:35:16;;;;;;;;;;;;;;;24.34;37.25;99264.81;4479710;32;34134;-52
2021/04/02 11:37:43;;;;;;;;;;;;;;;24.35;37.28;99260.19;4482527;32;34144;-57
2021/04/02 11:40:11;;;;;;;;;;;;;;;24.34;37.33;99242.16;4481150;32;33875;-58
2021/04/02 11:42:37;;;;;;;;;;;;;;;24.34;37.34;99258.53;4476420;32;33191;-57
2021/04/02 11:45:05;;;;;;;;;;;;;;;24.35;37.38;99257.47;4472968;32;34164;-56
2021/04/02 11:47:32;;;;;;;;;;;;;;;24.36;37.36;99264.56;4472415;32;35617;-55
2021/04/02 11:49:59;;;;;;;;;;;;;;;24.35;37.38;99249.28;4468172;32;34528;-56
2021/04/02 11:52:27;;;;;;;;;;;;;;;24.37;37.41;99258.06;4469295;32;33532;-51
2021/04/02 11:54:54;;;;;;;;;;;;;;;24.37;37.44;99256.16;4477636;32;34805;-58
2021/04/02 11:57:21;;;;;;;;;;;;;;;24.38;37.43;99248.81;4483459;32;34204;-50
2021/04/02 11:59:48;;;;;;;;;;;;;;;24.37;37.61;99252.63;4482092;32;35006;-49
2021/04/02 12:02:15;;;;;;;;;;;;;;;24.37;37.68;99250.72;4484024;32;33034;-55
2021/04/02 12:04:42;;;;;;;;;;;;;;;24.36;37.68;99253.66;4484162;32;34477;-53
2021/04/02 12:07:09;;;;;;;;;;;;;;;24.37;37.67;99249.88;4484135;32;34097;-50
2021/04/02 12:09:36;;;;;;;;;;;;;;;24.37;37.68;99252.63;4483985;32;34368;-58
2021/04/02 12:12:04;;;;;;;;;;;;;;;24.36;37.71;99250.94;4469030;32;33387;-56
2021/04/02 12:14:32;;;;;;;;;;;;;;;24.36;37.70;99245.47;4469059;32;34843;-57
2021/04/02 12:16:58;;;;;;;;;;;;;;;24.36;37.68;99249.06;4468850;32;34163;-56
2021/04/02 12:19:26;;;;;;;;;;;;;;;24.36;37.71;99249.06;4480476;32;35346;-58
2021/04/02 12:21:53;;;;;;;;;;;;;;;24.37;37.69;99244.44;4484849;32;34276;-52
2021/04/02 12:24:19;;;;;;;;;;;;;;;24.35;37.73;99250.12;4484574;32;34085;-53
2021/04/02 12:26:47;;;;;;;;;;;;;;;24.35;37.74;99252.03;4484711;32;35017;-52
2021/04/02 12:29:14;;;;;;;;;;;;;;;24.36;37.73;99261.84;4484518;32;35110;-50
2021/04/02 12:31:41;;;;;;;;;;;;;;;24.35;37.78;99252.03;4484315;32;33546;-55
2021/04/02 12:34:08;;;;;;;;;;;;;;;24.35;37.75;99244.66;4482551;32;34017;-58
2021/04/02 12:36:41;;;;;;;;;;;;;;;24.36;37.76;99242.75;4468788;32;34722;-57
2021/04/02 12:39:08;;;;;;;;;;;;;;;24.36;37.69;99246.34;4468769;32;33761;-58
2021/04/02 12:41:35;;;;;;;;;;;;;;;24.37;37.76;99250.72;4473056;32;33586;-48
2021/04/02 12:44:02;;;;;;;;;;;;;;;24.38;37.79;99251.53;4484407;32;34911;-57
2021/04/02 12:46:29;;;;;;;;;;;;;;;24.38;37.75;99246.09;4484303;32;34881;-56
2021/04/02 12:48:56;;;;;;;;;;;;;;;24.38;37.78;99244.19;4484469;32;34437;-55
2021/04/02 12:51:23;;;;;;;;;;;;;;;24.38;37.90;99233.28;4481560;32;33536;-58
2021/04/02 12:53:50;;;;;;;;;;;;;;;24.38;38.02;99229.72;4468655;32;34213;-56